sensor_id;sensor_type;location;lat;lon;timestamp;P1;durP1;ratioP1;P2;durP2;ratioP2
47433;SDS011;33184;48.774;8.918;2022-10-29T00:02:00;8.85;;;3.50;;
47433;SDS011;33184;48.774;8.918;2022-10-29T00:07:20;8.68;;;3.35;;
47433;SDS011;33184;48.774;8.918;2022-10-29T00:12:41;6.78;;;3.08;;
47433;SDS011;33184;48.774;8.918;2022-10-29T00:18:01;7.10;;;3.10;;
47433;SDS011;33184;48.774;8.918;2022-10-29T00:23:22;10.70;;;3.90;;
47433;SDS011;33184;48.774;8.918;2022-10-29T00:28:42;14.52;;;4.53;;
47433;SDS011;33184;48.774;8.918;2022-10-29T00:34:03;5.85;;;3.22;;
47433;SDS011;33184;48.774;8.918;2022-10-29T00:39:23;10.65;;;3.38;;
47433;SDS011;33184;48.774;8.918;2022-10-29T00:44:44;8.55;;;2.65;;
47433;SDS011;33184;48.774;8.918;2022-10-29T00:50:08;13.82;;;2.97;;
47433;SDS011;33184;48.774;8.918;2022-10-29T00:55:32;10.00;;;2.80;;
47433;SDS011;33184;48.774;8.918;2022-10-29T01:00:53;9.75;;;2.97;;
47433;SDS011;33184;48.774;8.918;2022-10-29T01:06:13;9.88;;;3.25;;
47433;SDS011;33184;48.774;8.918;2022-10-29T01:11:39;16.67;;;4.60;;
47433;SDS011;33184;48.774;8.918;2022-10-29T01:34:23;9.32;;;2.70;;
47433;SDS011;33184;48.774;8.918;2022-10-29T01:45:48;5.25;;;2.78;;
47433;SDS011;33184;48.774;8.918;2022-10-29T01:51:21;12.25;;;3.50;;
47433;SDS011;33184;48.774;8.918;2022-10-29T01:56:54;8.93;;;3.53;;
47433;SDS011;33184;48.774;8.918;2022-10-29T02:02:27;5.63;;;2.60;;
47433;SDS011;33184;48.774;8.918;2022-10-29T02:08:02;12.20;;;3.03;;
47433;SDS011;33184;48.774;8.918;2022-10-29T02:13:27;10.63;;;2.47;;
47433;SDS011;33184;48.774;8.918;2022-10-29T02:18:51;9.68;;;2.75;;
47433;SDS011;33184;48.774;8.918;2022-10-29T02:24:12;5.65;;;2.17;;
47433;SDS011;33184;48.774;8.918;2022-10-29T02:29:32;6.68;;;2.30;;
47433;SDS011;33184;48.774;8.918;2022-10-29T02:34:53;9.38;;;2.17;;
47433;SDS011;33184;48.774;8.918;2022-10-29T02:40:14;8.80;;;2.70;;
47433;SDS011;33184;48.774;8.918;2022-10-29T02:45:34;5.30;;;2.55;;
47433;SDS011;33184;48.774;8.918;2022-10-29T02:50:55;15.70;;;3.58;;
47433;SDS011;33184;48.774;8.918;2022-10-29T02:56:15;6.47;;;2.65;;
47433;SDS011;33184;48.774;8.918;2022-10-29T03:01:36;10.63;;;2.55;;
47433;SDS011;33184;48.774;8.918;2022-10-29T03:06:56;10.32;;;2.65;;
47433;SDS011;33184;48.774;8.918;2022-10-29T03:12:17;9.02;;;2.45;;
47433;SDS011;33184;48.774;8.918;2022-10-29T03:17:37;9.43;;;2.88;;
47433;SDS011;33184;48.774;8.918;2022-10-29T03:22:58;13.25;;;2.35;;
47433;SDS011;33184;48.774;8.918;2022-10-29T03:28:19;10.73;;;2.72;;
47433;SDS011;33184;48.774;8.918;2022-10-29T03:33:40;5.57;;;2.45;;
47433;SDS011;33184;48.774;8.918;2022-10-29T03:39:01;6.45;;;2.28;;
47433;SDS011;33184;48.774;8.918;2022-10-29T03:44:22;7.25;;;2.35;;
47433;SDS011;33184;48.774;8.918;2022-10-29T03:49:42;4.57;;;2.28;;
47433;SDS011;33184;48.774;8.918;2022-10-29T03:55:03;8.38;;;3.75;;
47433;SDS011;33184;48.774;8.918;2022-10-29T04:00:24;8.48;;;3.53;;
47433;SDS011;33184;48.774;8.918;2022-10-29T04:05:44;6.32;;;2.22;;
47433;SDS011;33184;48.774;8.918;2022-10-29T04:11:05;7.65;;;3.28;;
47433;SDS011;33184;48.774;8.918;2022-10-29T04:16:27;12.52;;;2.58;;
47433;SDS011;33184;48.774;8.918;2022-10-29T04:21:47;9.10;;;3.03;;
47433;SDS011;33184;48.774;8.918;2022-10-29T04:27:08;2.85;;;2.00;;
47433;SDS011;33184;48.774;8.918;2022-10-29T04:32:28;6.30;;;2.20;;
47433;SDS011;33184;48.774;8.918;2022-10-29T04:37:49;8.80;;;3.33;;
47433;SDS011;33184;48.774;8.918;2022-10-29T04:43:09;9.80;;;2.58;;
47433;SDS011;33184;48.774;8.918;2022-10-29T04:48:30;18.73;;;4.20;;
47433;SDS011;33184;48.774;8.918;2022-10-29T04:53:50;13.05;;;3.70;;
47433;SDS011;33184;48.774;8.918;2022-10-29T04:59:11;6.00;;;3.58;;
47433;SDS011;33184;48.774;8.918;2022-10-29T05:04:32;9.15;;;2.83;;
47433;SDS011;33184;48.774;8.918;2022-10-29T05:09:52;11.20;;;3.10;;
47433;SDS011;33184;48.774;8.918;2022-10-29T05:15:13;8.85;;;3.45;;
47433;SDS011;33184;48.774;8.918;2022-10-29T05:20:34;6.57;;;3.50;;
47433;SDS011;33184;48.774;8.918;2022-10-29T05:25:55;6.53;;;2.90;;
47433;SDS011;33184;48.774;8.918;2022-10-29T05:31:15;8.32;;;3.50;;
47433;SDS011;33184;48.774;8.918;2022-10-29T05:36:36;9.48;;;3.35;;
47433;SDS011;33184;48.774;8.918;2022-10-29T05:41:57;8.50;;;3.33;;
47433;SDS011;33184;48.774;8.918;2022-10-29T05:47:18;10.07;;;3.00;;
47433;SDS011;33184;48.774;8.918;2022-10-29T05:52:38;10.48;;;3.97;;
47433;SDS011;33184;48.774;8.918;2022-10-29T05:58:00;8.05;;;3.70;;
47433;SDS011;33184;48.774;8.918;2022-10-29T06:03:23;13.52;;;3.05;;
47433;SDS011;33184;48.774;8.918;2022-10-29T06:08:43;9.55;;;3.20;;
47433;SDS011;33184;48.774;8.918;2022-10-29T06:14:04;11.88;;;3.05;;
47433;SDS011;33184;48.774;8.918;2022-10-29T06:19:24;7.40;;;3.08;;
47433;SDS011;33184;48.774;8.918;2022-10-29T06:24:45;10.60;;;3.67;;
47433;SDS011;33184;48.774;8.918;2022-10-29T06:30:07;14.85;;;4.18;;
47433;SDS011;33184;48.774;8.918;2022-10-29T06:35:28;10.02;;;4.20;;
47433;SDS011;33184;48.774;8.918;2022-10-29T06:40:52;9.07;;;4.45;;
47433;SDS011;33184;48.774;8.918;2022-10-29T06:46:13;10.40;;;3.17;;
47433;SDS011;33184;48.774;8.918;2022-10-29T06:51:33;10.18;;;2.97;;
47433;SDS011;33184;48.774;8.918;2022-10-29T06:56:54;8.05;;;3.75;;
47433;SDS011;33184;48.774;8.918;2022-10-29T07:02:15;7.70;;;3.45;;
47433;SDS011;33184;48.774;8.918;2022-10-29T07:07:37;8.85;;;3.78;;
47433;SDS011;33184;48.774;8.918;2022-10-29T07:12:58;10.82;;;3.38;;
47433;SDS011;33184;48.774;8.918;2022-10-29T07:18:19;11.25;;;2.88;;
47433;SDS011;33184;48.774;8.918;2022-10-29T07:23:40;7.90;;;2.60;;
47433;SDS011;33184;48.774;8.918;2022-10-29T07:29:00;7.47;;;3.28;;
47433;SDS011;33184;48.774;8.918;2022-10-29T07:34:21;8.50;;;3.55;;
47433;SDS011;33184;48.774;8.918;2022-10-29T07:39:41;7.68;;;3.10;;
47433;SDS011;33184;48.774;8.918;2022-10-29T07:45:02;10.35;;;3.10;;
47433;SDS011;33184;48.774;8.918;2022-10-29T07:50:23;7.50;;;3.83;;
47433;SDS011;33184;48.774;8.918;2022-10-29T07:55:43;12.63;;;3.55;;
47433;SDS011;33184;48.774;8.918;2022-10-29T08:01:10;12.35;;;3.47;;
47433;SDS011;33184;48.774;8.918;2022-10-29T08:06:31;8.27;;;3.63;;
47433;SDS011;33184;48.774;8.918;2022-10-29T08:11:51;13.75;;;4.60;;
47433;SDS011;33184;48.774;8.918;2022-10-29T08:17:12;11.38;;;3.83;;
47433;SDS011;33184;48.774;8.918;2022-10-29T08:22:32;9.88;;;3.53;;
47433;SDS011;33184;48.774;8.918;2022-10-29T08:28:00;16.77;;;4.97;;
47433;SDS011;33184;48.774;8.918;2022-10-29T08:33:22;19.52;;;5.18;;
47433;SDS011;33184;48.774;8.918;2022-10-29T08:38:42;18.50;;;6.03;;
47433;SDS011;33184;48.774;8.918;2022-10-29T08:55:16;7.40;;;2.28;;
47433;SDS011;33184;48.774;8.918;2022-10-29T09:00:39;12.18;;;2.65;;
47433;SDS011;33184;48.774;8.918;2022-10-29T09:06:05;11.48;;;2.80;;
47433;SDS011;33184;48.774;8.918;2022-10-29T09:11:40;13.45;;;2.60;;
47433;SDS011;33184;48.774;8.918;2022-10-29T09:17:29;9.90;;;2.33;;
47433;SDS011;33184;48.774;8.918;2022-10-29T09:23:27;10.77;;;1.90;;
47433;SDS011;33184;48.774;8.918;2022-10-29T09:34:39;8.18;;;1.67;;
47433;SDS011;33184;48.774;8.918;2022-10-29T09:40:05;6.40;;;1.60;;
47433;SDS011;33184;48.774;8.918;2022-10-29T09:45:41;7.85;;;2.13;;
47433;SDS011;33184;48.774;8.918;2022-10-29T09:51:19;8.18;;;2.10;;
47433;SDS011;33184;48.774;8.918;2022-10-29T09:57:05;11.60;;;2.17;;
47433;SDS011;33184;48.774;8.918;2022-10-29T10:02:37;13.85;;;2.72;;
47433;SDS011;33184;48.774;8.918;2022-10-29T10:08:03;7.05;;;2.13;;
47433;SDS011;33184;48.774;8.918;2022-10-29T10:13:30;8.68;;;3.25;;
47433;SDS011;33184;48.774;8.918;2022-10-29T10:18:53;9.30;;;1.70;;
47433;SDS011;33184;48.774;8.918;2022-10-29T10:24:30;10.18;;;2.40;;
47433;SDS011;33184;48.774;8.918;2022-10-29T10:35:29;13.40;;;1.67;;
47433;SDS011;33184;48.774;8.918;2022-10-29T10:40:54;9.32;;;1.65;;
47433;SDS011;33184;48.774;8.918;2022-10-29T10:46:22;12.15;;;2.15;;
47433;SDS011;33184;48.774;8.918;2022-10-29T10:51:47;10.23;;;1.50;;
47433;SDS011;33184;48.774;8.918;2022-10-29T11:08:11;9.23;;;1.92;;
47433;SDS011;33184;48.774;8.918;2022-10-29T11:13:40;8.75;;;2.35;;
47433;SDS011;33184;48.774;8.918;2022-10-29T11:24:59;8.25;;;2.83;;
47433;SDS011;33184;48.774;8.918;2022-10-29T11:30:24;6.18;;;1.40;;
47433;SDS011;33184;48.774;8.918;2022-10-29T11:35:57;9.10;;;1.73;;
47433;SDS011;33184;48.774;8.918;2022-10-29T11:41:37;8.90;;;1.70;;
47433;SDS011;33184;48.774;8.918;2022-10-29T11:59:06;8.55;;;1.40;;
47433;SDS011;33184;48.774;8.918;2022-10-29T12:04:46;5.57;;;1.75;;
47433;SDS011;33184;48.774;8.918;2022-10-29T12:15:58;7.00;;;1.63;;
47433;SDS011;33184;48.774;8.918;2022-10-29T12:21:38;9.95;;;1.88;;
47433;SDS011;33184;48.774;8.918;2022-10-29T12:43:57;6.85;;;1.60;;
47433;SDS011;33184;48.774;8.918;2022-10-29T12:55:33;6.95;;;1.45;;
47433;SDS011;33184;48.774;8.918;2022-10-29T13:00:56;6.65;;;1.42;;
47433;SDS011;33184;48.774;8.918;2022-10-29T13:12:11;9.18;;;1.90;;
47433;SDS011;33184;48.774;8.918;2022-10-29T13:17:34;6.07;;;1.70;;
47433;SDS011;33184;48.774;8.918;2022-10-29T13:22:58;9.82;;;1.45;;
47433;SDS011;33184;48.774;8.918;2022-10-29T13:39:00;8.02;;;1.75;;
47433;SDS011;33184;48.774;8.918;2022-10-29T13:49:46;5.45;;;1.30;;
47433;SDS011;33184;48.774;8.918;2022-10-29T13:55:07;13.13;;;2.15;;
47433;SDS011;33184;48.774;8.918;2022-10-29T14:00:29;9.45;;;1.88;;
47433;SDS011;33184;48.774;8.918;2022-10-29T14:05:59;15.38;;;2.08;;
47433;SDS011;33184;48.774;8.918;2022-10-29T14:16:48;8.93;;;1.20;;
47433;SDS011;33184;48.774;8.918;2022-10-29T14:22:19;11.18;;;1.58;;
47433;SDS011;33184;48.774;8.918;2022-10-29T14:28:03;3.78;;;1.42;;
47433;SDS011;33184;48.774;8.918;2022-10-29T14:33:29;6.88;;;1.30;;
47433;SDS011;33184;48.774;8.918;2022-10-29T14:38:52;9.27;;;1.80;;
47433;SDS011;33184;48.774;8.918;2022-10-29T14:44:15;7.43;;;1.80;;
47433;SDS011;33184;48.774;8.918;2022-10-29T14:49:39;11.73;;;2.72;;
47433;SDS011;33184;48.774;8.918;2022-10-29T14:55:08;11.70;;;1.85;;
47433;SDS011;33184;48.774;8.918;2022-10-29T15:00:36;8.15;;;1.27;;
47433;SDS011;33184;48.774;8.918;2022-10-29T15:06:12;9.95;;;2.35;;
47433;SDS011;33184;48.774;8.918;2022-10-29T15:11:37;9.07;;;2.28;;
47433;SDS011;33184;48.774;8.918;2022-10-29T15:17:07;8.63;;;1.48;;
47433;SDS011;33184;48.774;8.918;2022-10-29T15:27:52;9.65;;;1.40;;
47433;SDS011;33184;48.774;8.918;2022-10-29T15:33:17;9.02;;;2.20;;
47433;SDS011;33184;48.774;8.918;2022-10-29T15:44:45;11.43;;;1.88;;
47433;SDS011;33184;48.774;8.918;2022-10-29T15:49:57;5.53;;;1.80;;
47433;SDS011;33184;48.774;8.918;2022-10-29T15:55:23;5.53;;;1.50;;
47433;SDS011;33184;48.774;8.918;2022-10-29T16:00:53;8.75;;;1.70;;
47433;SDS011;33184;48.774;8.918;2022-10-29T16:06:14;13.48;;;2.58;;
47433;SDS011;33184;48.774;8.918;2022-10-29T16:11:35;10.18;;;1.60;;
47433;SDS011;33184;48.774;8.918;2022-10-29T16:16:55;11.43;;;3.10;;
47433;SDS011;33184;48.774;8.918;2022-10-29T16:22:25;7.30;;;1.55;;
47433;SDS011;33184;48.774;8.918;2022-10-29T16:27:47;8.30;;;2.13;;
47433;SDS011;33184;48.774;8.918;2022-10-29T16:33:09;12.02;;;2.33;;
47433;SDS011;33184;48.774;8.918;2022-10-29T16:38:30;8.23;;;2.90;;
47433;SDS011;33184;48.774;8.918;2022-10-29T16:43:51;10.98;;;1.95;;
47433;SDS011;33184;48.774;8.918;2022-10-29T16:49:12;11.52;;;2.58;;
47433;SDS011;33184;48.774;8.918;2022-10-29T16:54:32;6.40;;;2.13;;
47433;SDS011;33184;48.774;8.918;2022-10-29T16:59:53;14.00;;;3.38;;
47433;SDS011;33184;48.774;8.918;2022-10-29T17:05:13;9.48;;;2.70;;
47433;SDS011;33184;48.774;8.918;2022-10-29T17:10:34;15.68;;;3.38;;
47433;SDS011;33184;48.774;8.918;2022-10-29T17:15:55;11.65;;;3.65;;
47433;SDS011;33184;48.774;8.918;2022-10-29T17:21:16;9.77;;;2.28;;
47433;SDS011;33184;48.774;8.918;2022-10-29T17:26:37;10.68;;;3.17;;
47433;SDS011;33184;48.774;8.918;2022-10-29T17:31:57;8.25;;;2.50;;
47433;SDS011;33184;48.774;8.918;2022-10-29T17:37:18;9.63;;;2.67;;
47433;SDS011;33184;48.774;8.918;2022-10-29T17:42:38;12.98;;;3.38;;
47433;SDS011;33184;48.774;8.918;2022-10-29T17:47:59;7.97;;;2.65;;
47433;SDS011;33184;48.774;8.918;2022-10-29T17:53:20;8.23;;;2.50;;
47433;SDS011;33184;48.774;8.918;2022-10-29T17:58:41;9.05;;;3.22;;
47433;SDS011;33184;48.774;8.918;2022-10-29T18:04:01;12.25;;;3.10;;
47433;SDS011;33184;48.774;8.918;2022-10-29T18:09:23;12.05;;;3.05;;
47433;SDS011;33184;48.774;8.918;2022-10-29T18:14:43;8.10;;;2.17;;
47433;SDS011;33184;48.774;8.918;2022-10-29T18:20:04;11.68;;;3.28;;
47433;SDS011;33184;48.774;8.918;2022-10-29T18:25:25;12.15;;;2.53;;
47433;SDS011;33184;48.774;8.918;2022-10-29T18:30:48;12.80;;;3.80;;
47433;SDS011;33184;48.774;8.918;2022-10-29T18:36:08;9.80;;;3.05;;
47433;SDS011;33184;48.774;8.918;2022-10-29T18:41:29;7.53;;;3.50;;
47433;SDS011;33184;48.774;8.918;2022-10-29T18:46:50;11.07;;;3.70;;
47433;SDS011;33184;48.774;8.918;2022-10-29T18:52:10;6.95;;;2.95;;
47433;SDS011;33184;48.774;8.918;2022-10-29T18:57:31;7.32;;;2.30;;
47433;SDS011;33184;48.774;8.918;2022-10-29T19:02:52;6.80;;;2.10;;
47433;SDS011;33184;48.774;8.918;2022-10-29T19:08:12;14.27;;;3.72;;
47433;SDS011;33184;48.774;8.918;2022-10-29T19:13:33;9.65;;;4.13;;
47433;SDS011;33184;48.774;8.918;2022-10-29T19:18:58;15.38;;;5.38;;
47433;SDS011;33184;48.774;8.918;2022-10-29T19:24:20;11.52;;;4.78;;
47433;SDS011;33184;48.774;8.918;2022-10-29T19:29:40;15.70;;;6.18;;
47433;SDS011;33184;48.774;8.918;2022-10-29T19:35:01;21.10;;;5.75;;
47433;SDS011;33184;48.774;8.918;2022-10-29T19:40:21;15.00;;;6.15;;
47433;SDS011;33184;48.774;8.918;2022-10-29T19:45:42;15.93;;;5.68;;
47433;SDS011;33184;48.774;8.918;2022-10-29T19:51:03;14.43;;;6.80;;
47433;SDS011;33184;48.774;8.918;2022-10-29T19:56:24;14.48;;;6.13;;
47433;SDS011;33184;48.774;8.918;2022-10-29T20:01:45;14.57;;;6.00;;
47433;SDS011;33184;48.774;8.918;2022-10-29T20:07:07;14.07;;;6.30;;
47433;SDS011;33184;48.774;8.918;2022-10-29T20:12:28;12.00;;;6.05;;
47433;SDS011;33184;48.774;8.918;2022-10-29T20:17:48;14.57;;;5.40;;
47433;SDS011;33184;48.774;8.918;2022-10-29T20:23:09;19.20;;;6.28;;
47433;SDS011;33184;48.774;8.918;2022-10-29T20:28:30;16.30;;;6.13;;
47433;SDS011;33184;48.774;8.918;2022-10-29T20:33:51;12.57;;;6.05;;
47433;SDS011;33184;48.774;8.918;2022-10-29T20:39:13;14.55;;;5.43;;
47433;SDS011;33184;48.774;8.918;2022-10-29T20:44:33;16.55;;;6.60;;
47433;SDS011;33184;48.774;8.918;2022-10-29T20:49:54;12.07;;;6.22;;
47433;SDS011;33184;48.774;8.918;2022-10-29T20:55:15;13.65;;;5.28;;
47433;SDS011;33184;48.774;8.918;2022-10-29T21:00:36;12.38;;;5.70;;
47433;SDS011;33184;48.774;8.918;2022-10-29T21:06:04;11.90;;;5.07;;
47433;SDS011;33184;48.774;8.918;2022-10-29T21:11:26;15.85;;;5.15;;
47433;SDS011;33184;48.774;8.918;2022-10-29T21:16:46;11.82;;;4.40;;
47433;SDS011;33184;48.774;8.918;2022-10-29T21:22:07;11.77;;;4.25;;
47433;SDS011;33184;48.774;8.918;2022-10-29T21:27:27;21.05;;;5.70;;
47433;SDS011;33184;48.774;8.918;2022-10-29T21:32:48;10.45;;;4.95;;
47433;SDS011;33184;48.774;8.918;2022-10-29T21:38:08;10.15;;;4.95;;
47433;SDS011;33184;48.774;8.918;2022-10-29T21:43:29;16.58;;;6.05;;
47433;SDS011;33184;48.774;8.918;2022-10-29T21:48:49;16.02;;;5.80;;
47433;SDS011;33184;48.774;8.918;2022-10-29T21:54:10;13.48;;;6.13;;
47433;SDS011;33184;48.774;8.918;2022-10-29T21:59:30;12.30;;;5.93;;
47433;SDS011;33184;48.774;8.918;2022-10-29T22:04:51;10.32;;;4.50;;
47433;SDS011;33184;48.774;8.918;2022-10-29T22:10:11;10.65;;;4.95;;
47433;SDS011;33184;48.774;8.918;2022-10-29T22:15:32;13.23;;;4.50;;
47433;SDS011;33184;48.774;8.918;2022-10-29T22:26:26;15.20;;;5.03;;
47433;SDS011;33184;48.774;8.918;2022-10-29T22:31:48;11.80;;;3.85;;
47433;SDS011;33184;48.774;8.918;2022-10-29T22:37:09;9.70;;;3.15;;
47433;SDS011;33184;48.774;8.918;2022-10-29T22:42:29;12.18;;;4.47;;
47433;SDS011;33184;48.774;8.918;2022-10-29T22:47:50;10.13;;;4.07;;
47433;SDS011;33184;48.774;8.918;2022-10-29T22:53:10;11.55;;;3.10;;
47433;SDS011;33184;48.774;8.918;2022-10-29T22:58:31;8.38;;;3.47;;
47433;SDS011;33184;48.774;8.918;2022-10-29T23:03:51;12.75;;;4.38;;
47433;SDS011;33184;48.774;8.918;2022-10-29T23:09:12;15.57;;;4.20;;
47433;SDS011;33184;48.774;8.918;2022-10-29T23:14:33;10.82;;;3.72;;
47433;SDS011;33184;48.774;8.918;2022-10-29T23:19:53;13.05;;;4.70;;
47433;SDS011;33184;48.774;8.918;2022-10-29T23:25:15;10.85;;;3.45;;
47433;SDS011;33184;48.774;8.918;2022-10-29T23:30:35;15.60;;;3.20;;
47433;SDS011;33184;48.774;8.918;2022-10-29T23:41:24;13.48;;;3.47;;
47433;SDS011;33184;48.774;8.918;2022-10-29T23:46:45;12.27;;;3.38;;
47433;SDS011;33184;48.774;8.918;2022-10-29T23:52:06;12.18;;;3.65;;
47433;SDS011;33184;48.774;8.918;2022-10-29T23:57:26;11.10;;;3.97;;
